createdAt,value
2022-10-30T00:00:16.762Z,46.64
2022-10-30T00:01:16.824Z,56.37
2022-10-30T00:02:16.829Z,49.73
2022-10-30T00:03:16.826Z,39.47
2022-10-30T00:04:16.744Z,55.82
2022-10-30T00:05:16.710Z,43.76
2022-10-30T00:07:17.693Z,44.42
2022-10-30T00:08:16.688Z,54.13
2022-10-30T00:09:16.717Z,40.59
2022-10-30T00:10:16.667Z,35.48
2022-10-30T00:11:16.658Z,37.19
2022-10-30T00:12:16.655Z,61.01
2022-10-30T00:13:16.639Z,51.05
2022-10-30T00:14:16.675Z,45.30
2022-10-30T00:15:16.632Z,47.99
2022-10-30T00:16:16.617Z,38.20
2022-10-30T00:17:16.616Z,38.13
2022-10-30T00:18:16.601Z,55.06
2022-10-30T00:19:16.623Z,47.09
2022-10-30T00:20:16.579Z,43.64
2022-10-30T00:21:16.580Z,52.60
2022-10-30T00:22:16.565Z,59.79
2022-10-30T00:23:16.562Z,51.49
2022-10-30T00:24:16.582Z,41.52
2022-10-30T00:25:16.541Z,57.11
2022-10-30T00:26:16.543Z,52.10
2022-10-30T00:27:16.530Z,52.82
2022-10-30T00:28:16.528Z,38.51
2022-10-30T00:29:16.535Z,40.17
2022-10-30T00:30:16.529Z,41.57
2022-10-30T00:31:16.488Z,45.86
2022-10-30T00:32:16.485Z,50.81
2022-10-30T00:33:16.477Z,51.74
2022-10-30T00:34:16.504Z,57.59
2022-10-30T00:35:16.460Z,57.96
2022-10-30T00:36:16.454Z,50.75
2022-10-30T00:37:16.445Z,58.44
2022-10-30T00:38:16.430Z,56.33
2022-10-30T00:39:16.451Z,51.00
2022-10-30T00:40:16.418Z,51.40
2022-10-30T00:41:16.415Z,48.74
2022-10-30T00:42:16.407Z,37.35
2022-10-30T00:43:16.406Z,36.73
2022-10-30T00:44:16.432Z,48.26
2022-10-30T00:45:16.380Z,53.36
2022-10-30T00:46:16.379Z,39.66
2022-10-30T00:47:16.356Z,54.46
2022-10-30T00:48:16.358Z,49.65
2022-10-30T00:49:16.381Z,60.27
2022-10-30T00:50:16.483Z,48.68
2022-10-30T00:51:16.329Z,54.92
2022-10-30T00:52:16.316Z,45.45
2022-10-30T00:53:16.318Z,40.59
2022-10-30T00:54:16.307Z,46.02
2022-10-30T00:55:16.322Z,39.80
2022-10-30T00:56:16.282Z,47.56
2022-10-30T00:57:17.273Z,41.81
2022-10-30T00:58:16.263Z,60.65
2022-10-30T00:59:16.261Z,47.07
2022-10-30T01:00:16.275Z,46.27
2022-10-30T01:01:16.307Z,48.11
2022-10-30T01:02:16.364Z,48.41
2022-10-30T01:03:16.232Z,37.90
2022-10-30T01:04:16.218Z,46.63
2022-10-30T01:05:16.244Z,38.55
2022-10-30T01:06:16.200Z,62.46
2022-10-30T01:07:16.209Z,51.45
2022-10-30T01:08:16.220Z,44.22
2022-10-30T01:09:16.316Z,54.99
2022-10-30T01:10:16.205Z,44.16
2022-10-30T01:11:16.180Z,38.37
2022-10-30T01:12:16.153Z,45.15
2022-10-30T01:13:16.145Z,35.07
2022-10-30T01:14:16.146Z,37.87
2022-10-30T01:15:16.166Z,53.48
2022-10-30T01:16:16.117Z,43.42
2022-10-30T01:17:16.122Z,46.70
2022-10-30T01:18:16.100Z,48.55
2022-10-30T01:19:16.097Z,41.49
2022-10-30T01:20:16.117Z,54.11
2022-10-30T01:21:16.079Z,54.39
2022-10-30T01:22:16.066Z,41.41
2022-10-30T01:23:16.061Z,53.76
2022-10-30T01:24:16.067Z,43.93
2022-10-30T01:25:16.080Z,50.84
2022-10-30T01:26:16.041Z,46.50
2022-10-30T01:27:16.035Z,36.29
2022-10-30T01:28:16.026Z,47.14
2022-10-30T01:29:16.015Z,47.00
2022-10-30T01:30:16.038Z,35.58
2022-10-30T01:31:15.997Z,44.28
2022-10-30T01:32:15.991Z,50.58
2022-10-30T01:33:15.985Z,52.82
2022-10-30T01:34:15.984Z,46.94
2022-10-30T01:35:15.989Z,49.40
2022-10-30T01:36:15.967Z,55.40
2022-10-30T01:37:15.956Z,57.55
2022-10-30T01:38:15.950Z,50.12
2022-10-30T01:39:15.932Z,37.59
2022-10-30T01:40:15.948Z,37.95
2022-10-30T01:41:15.935Z,51.84
2022-10-30T01:42:15.917Z,57.49
2022-10-30T01:43:15.893Z,51.20
2022-10-30T01:44:15.895Z,55.64
2022-10-30T01:45:15.914Z,48.53
2022-10-30T01:46:15.881Z,46.70
2022-10-30T01:47:15.872Z,54.61
2022-10-30T01:48:15.864Z,42.03
2022-10-30T01:49:15.904Z,36.41
2022-10-30T01:50:15.872Z,51.34
2022-10-30T01:51:15.840Z,45.66
2022-10-30T01:52:15.830Z,42.13
2022-10-30T01:53:15.824Z,64.79
2022-10-30T01:54:15.823Z,54.76
2022-10-30T01:55:15.838Z,48.71
2022-10-30T01:56:15.793Z,47.48
2022-10-30T01:57:15.802Z,53.97
2022-10-30T01:58:15.778Z,51.30
2022-10-30T01:59:15.770Z,53.14
2022-10-30T02:00:15.790Z,47.32
2022-10-30T02:01:15.851Z,45.16
2022-10-30T02:02:15.805Z,45.71
2022-10-30T02:03:15.739Z,45.75
2022-10-30T02:04:15.739Z,47.12
2022-10-30T02:05:15.754Z,49.12
2022-10-30T02:06:15.716Z,47.91
2022-10-30T02:07:15.711Z,38.16
2022-10-30T02:08:15.699Z,35.96
2022-10-30T02:09:15.697Z,35.75
2022-10-30T02:10:15.713Z,45.88
2022-10-30T02:11:15.678Z,38.98
2022-10-30T02:12:15.663Z,44.61
2022-10-30T02:13:15.654Z,48.46
2022-10-30T02:14:15.649Z,44.59
2022-10-30T02:15:15.673Z,46.20
2022-10-30T02:16:15.635Z,43.53
2022-10-30T02:17:15.623Z,34.90
2022-10-30T02:18:15.614Z,46.52
2022-10-30T02:19:15.607Z,37.23
2022-10-30T02:20:15.639Z,35.13
2022-10-30T02:21:15.596Z,35.38
2022-10-30T02:22:15.619Z,35.54
2022-10-30T02:23:15.567Z,44.20
2022-10-30T02:24:15.565Z,38.42
2022-10-30T02:25:15.590Z,36.54
2022-10-30T02:26:15.542Z,53.16
2022-10-30T02:27:15.540Z,46.95
2022-10-30T02:28:15.532Z,42.60
2022-10-30T02:29:15.525Z,43.18
2022-10-30T02:30:15.515Z,34.85
2022-10-30T02:31:15.534Z,39.92
2022-10-30T02:32:15.496Z,50.56
2022-10-30T02:33:15.516Z,40.43
2022-10-30T02:34:15.482Z,48.32
2022-10-30T02:35:15.513Z,44.40
2022-10-30T02:36:15.603Z,48.61
2022-10-30T02:37:15.465Z,59.41
2022-10-30T02:38:15.462Z,46.85
2022-10-30T02:39:15.468Z,37.56
2022-10-30T02:40:15.469Z,36.39
2022-10-30T02:41:15.442Z,43.65
2022-10-30T02:42:15.424Z,39.39
2022-10-30T02:43:15.407Z,39.72
2022-10-30T02:44:15.401Z,46.26
2022-10-30T02:45:15.416Z,39.76
2022-10-30T02:46:15.390Z,44.78
2022-10-30T02:47:15.380Z,36.03
2022-10-30T02:48:15.383Z,36.31
2022-10-30T02:49:15.362Z,52.12
2022-10-30T02:50:15.390Z,43.50
2022-10-30T02:51:15.344Z,40.26
2022-10-30T02:52:15.337Z,58.78
2022-10-30T02:53:15.323Z,47.88
2022-10-30T02:54:15.320Z,39.75
2022-10-30T02:55:15.354Z,39.22
2022-10-30T02:56:15.334Z,51.78
2022-10-30T02:57:15.296Z,48.30
2022-10-30T02:58:15.288Z,47.88
2022-10-30T02:59:15.291Z,52.81
2022-10-30T03:00:15.281Z,39.89
2022-10-30T03:01:15.423Z,60.42
2022-10-30T03:02:15.316Z,44.01
2022-10-30T03:03:17.559Z,50.45
2022-10-30T03:04:15.246Z,39.32
2022-10-30T03:05:15.229Z,36.50
2022-10-30T03:06:15.259Z,36.13
2022-10-30T03:07:15.219Z,35.74
2022-10-30T03:08:15.211Z,55.45
2022-10-30T03:09:15.203Z,43.46
2022-10-30T03:10:15.195Z,38.75
2022-10-30T03:11:15.220Z,37.91
2022-10-30T03:12:15.176Z,36.31
2022-10-30T03:13:15.166Z,58.53
2022-10-30T03:14:15.167Z,49.27
2022-10-30T03:15:15.150Z,39.64
2022-10-30T03:16:15.178Z,36.81
2022-10-30T03:17:15.136Z,53.61
2022-10-30T03:18:15.133Z,55.50
2022-10-30T03:19:15.121Z,47.63
2022-10-30T03:20:15.355Z,50.94
2022-10-30T03:21:15.098Z,56.40
2022-10-30T03:22:15.095Z,41.22
2022-10-30T03:23:15.137Z,48.26
2022-10-30T03:24:15.077Z,37.90
2022-10-30T03:25:15.067Z,39.30
2022-10-30T03:26:15.093Z,53.47
2022-10-30T03:27:15.056Z,38.44
2022-10-30T03:28:15.050Z,35.97
2022-10-30T03:29:15.046Z,46.57
2022-10-30T03:30:15.036Z,41.56
2022-10-30T03:31:15.053Z,51.10
2022-10-30T03:32:15.073Z,46.66
2022-10-30T03:33:15.011Z,47.50
2022-10-30T03:34:15.007Z,37.56
2022-10-30T03:35:15.029Z,36.12
2022-10-30T03:36:14.987Z,44.85
2022-10-30T03:37:14.980Z,55.58
2022-10-30T03:38:14.963Z,48.85
2022-10-30T03:39:14.970Z,46.25
2022-10-30T03:40:14.977Z,50.19
2022-10-30T03:41:14.937Z,59.26
2022-10-30T03:42:14.935Z,63.52
2022-10-30T03:43:14.919Z,42.84
2022-10-30T03:44:14.913Z,37.38
2022-10-30T03:45:14.935Z,35.65
2022-10-30T03:46:14.897Z,35.70
2022-10-30T03:47:14.888Z,44.08
2022-10-30T03:48:14.882Z,50.54
2022-10-30T03:49:14.872Z,49.95
2022-10-30T03:50:14.909Z,56.49
2022-10-30T03:51:14.857Z,44.92
2022-10-30T03:52:14.859Z,53.22
2022-10-30T03:53:14.843Z,50.51
2022-10-30T03:54:14.833Z,56.76
2022-10-30T03:55:14.863Z,53.05
2022-10-30T03:56:14.816Z,55.98
2022-10-30T03:57:14.809Z,58.93
2022-10-30T03:58:14.805Z,46.49
2022-10-30T03:59:14.797Z,53.34
2022-10-30T04:00:14.789Z,55.97
2022-10-30T04:01:14.968Z,57.26
2022-10-30T04:02:15.002Z,47.98
2022-10-30T04:03:14.762Z,56.35
2022-10-30T04:04:14.755Z,52.83
2022-10-30T04:05:14.742Z,42.78
2022-10-30T04:06:14.762Z,38.34
2022-10-30T04:07:14.727Z,47.27
2022-10-30T04:08:14.723Z,51.43
2022-10-30T04:09:14.709Z,54.69
2022-10-30T04:10:19.322Z,46.73
2022-10-30T04:11:15.812Z,59.49
2022-10-30T04:12:14.678Z,61.11
2022-10-30T04:13:14.680Z,61.39
2022-10-30T04:14:14.669Z,61.72
2022-10-30T04:15:14.663Z,57.05
2022-10-30T04:16:14.674Z,49.69
2022-10-30T04:17:14.655Z,55.67
2022-10-30T04:18:14.626Z,64.81
2022-10-30T04:19:14.623Z,53.28
2022-10-30T04:20:14.620Z,58.31
2022-10-30T04:21:14.638Z,40.46
2022-10-30T04:22:14.596Z,37.67
2022-10-30T04:23:14.597Z,46.38
2022-10-30T04:24:14.581Z,39.68
2022-10-30T04:25:14.575Z,38.08
2022-10-30T04:26:14.591Z,44.93
2022-10-30T04:27:14.553Z,65.25
2022-10-30T04:28:14.573Z,56.11
2022-10-30T04:29:14.549Z,60.20
2022-10-30T04:30:14.530Z,49.63
2022-10-30T04:31:14.561Z,48.92
2022-10-30T04:32:14.518Z,69.16
2022-10-30T04:33:14.526Z,54.60
2022-10-30T04:34:14.495Z,47.27
2022-10-30T04:35:14.491Z,48.31
2022-10-30T04:36:14.508Z,42.10
2022-10-30T04:37:14.473Z,45.24
2022-10-30T04:38:14.476Z,46.57
2022-10-30T04:39:14.462Z,61.00
2022-10-30T04:40:14.455Z,50.76
2022-10-30T04:41:14.477Z,50.22
2022-10-30T04:42:14.445Z,38.19
2022-10-30T04:43:14.431Z,47.78
2022-10-30T04:44:14.417Z,45.70
2022-10-30T04:45:15.344Z,47.80
2022-10-30T04:46:15.459Z,49.27
2022-10-30T04:47:14.391Z,51.50
2022-10-30T04:48:14.379Z,44.10
2022-10-30T04:49:14.367Z,51.88
2022-10-30T04:50:14.362Z,48.89
2022-10-30T04:51:14.384Z,40.03
2022-10-30T04:52:14.350Z,35.75
2022-10-30T04:53:14.346Z,36.45
2022-10-30T04:54:14.325Z,54.80
2022-10-30T04:55:14.321Z,45.89
2022-10-30T04:56:14.324Z,41.66
2022-10-30T04:57:14.335Z,60.33
2022-10-30T04:58:14.300Z,50.42
2022-10-30T04:59:14.293Z,45.83
2022-10-30T05:00:14.280Z,51.18
2022-10-30T05:01:14.432Z,45.70
2022-10-30T05:02:14.396Z,56.49
2022-10-30T05:03:14.252Z,46.12
2022-10-30T05:04:14.251Z,38.22
2022-10-30T05:05:14.239Z,57.99
2022-10-30T05:06:14.246Z,48.06
2022-10-30T05:07:14.248Z,45.56
2022-10-30T05:08:14.213Z,46.98
2022-10-30T05:09:14.204Z,40.47
2022-10-30T05:10:14.191Z,54.64
2022-10-30T05:11:14.188Z,56.28
2022-10-30T05:12:14.213Z,47.46
2022-10-30T05:13:14.172Z,38.34
2022-10-30T05:14:14.163Z,49.79
2022-10-30T05:15:14.153Z,46.85
2022-10-30T05:16:14.169Z,57.70
2022-10-30T05:17:14.181Z,52.71
2022-10-30T05:18:14.132Z,37.48
2022-10-30T05:19:14.121Z,48.26
2022-10-30T05:20:16.394Z,36.54
2022-10-30T05:21:14.105Z,45.91
2022-10-30T05:22:14.128Z,39.66
2022-10-30T05:23:14.094Z,48.98
2022-10-30T05:24:14.085Z,54.94
2022-10-30T05:25:14.072Z,60.89
2022-10-30T05:26:14.083Z,48.34
2022-10-30T05:27:14.082Z,54.69
2022-10-30T05:28:14.059Z,38.57
2022-10-30T05:29:14.047Z,38.08
2022-10-30T05:30:14.035Z,53.02
2022-10-30T05:31:14.024Z,39.40
2022-10-30T05:33:15.003Z,46.79
2022-10-30T05:34:14.002Z,53.50
2022-10-30T05:35:13.987Z,49.96
2022-10-30T05:36:13.986Z,39.91
2022-10-30T05:37:14.006Z,42.90
2022-10-30T05:38:13.968Z,63.51
2022-10-30T05:39:13.959Z,57.88
2022-10-30T05:40:13.951Z,41.92
2022-10-30T05:41:13.944Z,47.22
2022-10-30T05:42:14.138Z,48.15
2022-10-30T05:43:14.922Z,54.78
2022-10-30T05:44:13.910Z,53.64
2022-10-30T05:45:13.907Z,53.55
2022-10-30T05:46:13.895Z,40.14
2022-10-30T05:47:13.889Z,36.05
2022-10-30T05:48:13.917Z,38.60
2022-10-30T05:49:13.875Z,61.69
2022-10-30T05:50:13.868Z,54.10
2022-10-30T05:51:13.862Z,51.62
2022-10-30T05:52:13.849Z,41.66
2022-10-30T05:53:13.877Z,49.34
2022-10-30T05:54:13.832Z,65.03
2022-10-30T05:55:13.826Z,46.35
2022-10-30T05:56:13.826Z,37.09
2022-10-30T05:57:13.814Z,45.60
2022-10-30T05:58:13.834Z,44.94
2022-10-30T05:59:13.791Z,41.28
2022-10-30T06:00:13.784Z,38.06
2022-10-30T06:01:13.878Z,46.52
2022-10-30T06:02:13.880Z,50.23
2022-10-30T06:03:13.800Z,39.11
2022-10-30T06:04:13.750Z,37.02
2022-10-30T06:05:13.743Z,44.47
2022-10-30T06:06:13.740Z,47.18
2022-10-30T06:07:13.768Z,50.68
2022-10-30T06:08:13.721Z,53.30
2022-10-30T06:09:13.716Z,42.92
2022-10-30T06:10:13.703Z,41.97
2022-10-30T06:11:13.695Z,55.24
2022-10-30T06:12:13.723Z,47.11
2022-10-30T06:13:13.678Z,43.84
2022-10-30T06:14:13.677Z,48.61
2022-10-30T06:15:13.669Z,50.06
2022-10-30T06:16:13.652Z,51.23
2022-10-30T06:17:13.683Z,51.68
2022-10-30T06:18:13.633Z,53.07
2022-10-30T06:19:18.320Z,52.12
2022-10-30T06:20:13.614Z,39.91
2022-10-30T06:21:13.630Z,36.80
2022-10-30T06:22:13.604Z,36.33
2022-10-30T06:23:13.631Z,37.60
2022-10-30T06:24:13.589Z,46.68
2022-10-30T06:25:13.591Z,40.00
2022-10-30T06:26:13.593Z,47.93
2022-10-30T06:27:13.579Z,49.51
2022-10-30T06:28:13.609Z,54.51
2022-10-30T06:29:13.555Z,61.02
2022-10-30T06:30:13.536Z,47.43
2022-10-30T06:31:13.547Z,58.83
2022-10-30T06:32:14.514Z,49.20
2022-10-30T06:33:13.536Z,54.77
2022-10-30T06:34:13.499Z,52.12
2022-10-30T06:35:13.499Z,54.17
2022-10-30T06:36:13.486Z,67.63
2022-10-30T06:37:13.653Z,51.05
2022-10-30T06:38:13.487Z,51.93
2022-10-30T06:39:13.463Z,61.26
2022-10-30T06:40:13.451Z,51.28
2022-10-30T06:41:13.442Z,54.09
2022-10-30T06:42:13.469Z,57.75
2022-10-30T06:43:13.425Z,56.23
2022-10-30T06:44:13.401Z,48.56
2022-10-30T06:45:14.416Z,51.25
2022-10-30T06:46:13.410Z,61.21
2022-10-30T06:47:13.429Z,50.74
2022-10-30T06:48:13.381Z,45.94
2022-10-30T06:49:13.383Z,46.58
2022-10-30T06:50:13.386Z,44.41
2022-10-30T06:51:13.361Z,51.33
2022-10-30T06:52:13.354Z,54.98
2022-10-30T06:53:13.381Z,60.29
2022-10-30T06:54:13.338Z,59.44
2022-10-30T06:55:13.337Z,48.52
2022-10-30T06:56:13.319Z,58.80
2022-10-30T06:57:13.341Z,49.95
2022-10-30T06:58:13.311Z,41.79
2022-10-30T06:59:13.302Z,48.09
2022-10-30T07:00:13.301Z,57.92
2022-10-30T07:01:13.440Z,57.32
2022-10-30T07:02:13.382Z,52.66
2022-10-30T07:03:13.292Z,54.30
2022-10-30T07:04:13.253Z,55.26
2022-10-30T07:05:13.248Z,60.00
2022-10-30T07:06:13.256Z,57.70
2022-10-30T07:07:13.234Z,55.89
2022-10-30T07:08:13.250Z,58.64
2022-10-30T07:09:13.209Z,56.03
2022-10-30T07:10:13.205Z,50.49
2022-10-30T07:11:13.196Z,59.49
2022-10-30T07:12:13.185Z,48.51
2022-10-30T07:13:13.204Z,59.93
2022-10-30T07:14:13.170Z,40.10
2022-10-30T07:15:13.161Z,37.45
2022-10-30T07:16:13.152Z,49.25
2022-10-30T07:17:13.141Z,48.61
2022-10-30T07:18:13.158Z,48.71
2022-10-30T07:19:13.122Z,60.39
2022-10-30T07:20:13.120Z,50.36
2022-10-30T07:21:13.112Z,60.88
2022-10-30T07:22:13.102Z,61.64
2022-10-30T07:23:13.141Z,50.26
2022-10-30T07:24:13.088Z,58.60
2022-10-30T07:25:13.083Z,56.95
2022-10-30T07:26:13.071Z,56.23
2022-10-30T07:27:13.071Z,49.17
2022-10-30T07:28:13.087Z,41.29
2022-10-30T07:29:13.057Z,65.74
2022-10-30T07:30:13.140Z,57.92
2022-10-30T07:31:13.036Z,57.88
2022-10-30T07:32:13.034Z,61.09
2022-10-30T07:33:13.049Z,59.43
2022-10-30T07:34:13.005Z,47.97
2022-10-30T07:35:13.001Z,57.86
2022-10-30T07:36:12.990Z,57.57
2022-10-30T07:37:12.979Z,51.88
2022-10-30T07:38:13.003Z,61.45
2022-10-30T07:39:12.963Z,57.48
2022-10-30T07:40:13.414Z,56.42
2022-10-30T07:41:13.948Z,64.25
2022-10-30T07:42:12.956Z,63.54
2022-10-30T07:43:12.958Z,50.76
2022-10-30T07:44:12.926Z,60.48
2022-10-30T07:45:12.919Z,60.04
2022-10-30T07:46:12.901Z,51.57
2022-10-30T07:47:12.893Z,64.01
2022-10-30T07:48:12.914Z,59.27
2022-10-30T07:49:12.876Z,60.59
2022-10-30T07:50:12.866Z,56.82
2022-10-30T07:51:12.863Z,55.44
2022-10-30T07:52:16.316Z,54.95
2022-10-30T07:53:13.876Z,62.38
2022-10-30T07:54:12.842Z,54.76
2022-10-30T07:55:12.839Z,55.72
2022-10-30T07:56:12.830Z,60.01
2022-10-30T07:57:12.814Z,62.67
2022-10-30T07:58:12.832Z,62.40
2022-10-30T07:59:12.797Z,67.74
2022-10-30T08:00:12.795Z,56.30
2022-10-30T08:01:12.866Z,50.44
2022-10-30T08:02:12.962Z,50.29
2022-10-30T08:03:12.797Z,60.18
2022-10-30T08:04:12.757Z,49.62
2022-10-30T08:05:12.756Z,61.30
2022-10-30T08:06:12.748Z,53.87
2022-10-30T08:07:12.729Z,62.06
2022-10-30T08:08:12.750Z,57.94
2022-10-30T08:09:12.719Z,56.66
2022-10-30T08:10:12.711Z,64.97
2022-10-30T08:11:12.702Z,63.49
2022-10-30T08:12:12.699Z,62.30
2022-10-30T08:13:12.712Z,61.60
2022-10-30T08:14:12.689Z,68.91
2022-10-30T08:15:12.660Z,60.55
2022-10-30T08:16:12.665Z,58.20
2022-10-30T08:17:12.651Z,63.18
2022-10-30T08:18:12.673Z,59.64
2022-10-30T08:19:12.642Z,60.27
2022-10-30T08:20:12.625Z,62.50
2022-10-30T08:21:12.631Z,57.02
2022-10-30T08:22:12.613Z,62.75
2022-10-30T08:23:12.647Z,67.21
2022-10-30T08:24:12.603Z,57.06
2022-10-30T08:25:12.598Z,56.85
2022-10-30T08:26:12.581Z,66.99
2022-10-30T08:27:12.568Z,60.71
2022-10-30T08:28:12.601Z,59.15
2022-10-30T08:29:12.560Z,65.13
2022-10-30T08:30:12.552Z,61.42
2022-10-30T08:31:12.547Z,54.26
2022-10-30T08:32:12.538Z,61.35
2022-10-30T08:33:12.551Z,60.70
2022-10-30T08:34:12.561Z,58.01
2022-10-30T08:35:15.744Z,64.72
2022-10-30T08:36:13.522Z,65.39
2022-10-30T08:37:12.503Z,60.22
2022-10-30T08:38:12.496Z,61.40
2022-10-30T08:39:12.517Z,59.70
2022-10-30T08:40:12.476Z,58.87
2022-10-30T08:41:12.474Z,69.29
2022-10-30T08:42:12.457Z,67.94
2022-10-30T08:43:12.460Z,56.08
2022-10-30T08:44:12.490Z,60.01
2022-10-30T08:45:12.446Z,62.39
2022-10-30T08:46:12.437Z,60.37
2022-10-30T08:47:12.427Z,56.03
2022-10-30T08:48:12.423Z,64.77
2022-10-30T08:49:12.442Z,62.32
2022-10-30T08:50:12.449Z,59.23
2022-10-30T08:51:12.399Z,62.60
2022-10-30T08:52:12.396Z,56.00
2022-10-30T08:53:12.403Z,59.25
2022-10-30T08:54:12.410Z,54.32
2022-10-30T08:55:12.366Z,57.36
2022-10-30T08:56:12.360Z,57.47
2022-10-30T08:57:12.359Z,55.16
2022-10-30T08:58:12.342Z,58.56
2022-10-30T08:59:15.851Z,61.19
2022-10-30T09:00:13.340Z,61.17
2022-10-30T09:01:12.358Z,63.63
2022-10-30T09:02:12.412Z,58.30
2022-10-30T09:03:12.307Z,61.93
2022-10-30T09:04:12.331Z,66.61
2022-10-30T09:05:12.294Z,59.81
2022-10-30T09:06:12.285Z,63.09
2022-10-30T09:07:13.137Z,59.47
2022-10-30T09:08:12.270Z,58.72
2022-10-30T09:09:12.290Z,59.95
2022-10-30T09:10:12.247Z,62.83
2022-10-30T09:11:12.243Z,60.10
2022-10-30T09:12:12.243Z,56.31
2022-10-30T09:13:12.262Z,64.18
2022-10-30T09:14:12.228Z,64.19
2022-10-30T09:15:12.213Z,57.17
2022-10-30T09:18:38.262Z,58.99
2022-10-30T09:19:39.484Z,68.75
2022-10-30T09:20:39.390Z,58.43
2022-10-30T09:21:39.377Z,63.79
2022-10-30T09:22:39.372Z,63.92
2022-10-30T09:23:39.388Z,61.16
2022-10-30T09:24:39.354Z,60.03
2022-10-30T09:25:39.348Z,63.00
2022-10-30T09:26:39.349Z,66.18
2022-10-30T09:27:39.334Z,58.69
2022-10-30T09:28:39.353Z,57.95
2022-10-30T09:29:39.314Z,59.58
2022-10-30T09:30:39.318Z,58.90
2022-10-30T09:31:39.305Z,58.34
2022-10-30T09:32:39.296Z,62.46
2022-10-30T09:33:39.317Z,66.55
2022-10-30T09:34:39.286Z,59.22
2022-10-30T09:35:39.275Z,60.84
2022-10-30T09:36:39.278Z,61.98
2022-10-30T09:37:39.256Z,67.11
2022-10-30T09:38:39.282Z,56.53
2022-10-30T09:39:39.246Z,64.71
2022-10-30T09:40:39.233Z,54.42
2022-10-30T09:41:39.226Z,62.35
2022-10-30T09:42:39.224Z,65.74
2022-10-30T09:43:39.247Z,65.04
2022-10-30T09:44:39.205Z,61.72
2022-10-30T09:45:39.202Z,60.23
2022-10-30T09:46:39.190Z,63.76
2022-10-30T09:47:39.185Z,60.75
2022-10-30T09:48:39.210Z,60.62
2022-10-30T09:49:39.175Z,61.16
2022-10-30T09:50:39.891Z,64.81
2022-10-30T09:51:39.154Z,62.04
2022-10-30T09:52:39.147Z,53.47
2022-10-30T09:53:39.153Z,59.30
2022-10-30T09:54:39.163Z,56.95
2022-10-30T09:55:39.137Z,65.77
2022-10-30T09:56:39.124Z,58.04
2022-10-30T09:57:39.122Z,63.33
2022-10-30T09:58:39.111Z,64.61
2022-10-30T09:59:39.130Z,56.40
2022-10-30T10:00:39.100Z,64.81
2022-10-30T10:01:39.178Z,67.68
2022-10-30T10:02:39.161Z,64.90
2022-10-30T10:03:39.159Z,65.20
2022-10-30T10:04:39.095Z,61.90
2022-10-30T10:05:39.056Z,59.97
2022-10-30T10:06:39.095Z,64.44
2022-10-30T10:07:39.043Z,61.12
2022-10-30T10:08:39.036Z,61.01
2022-10-30T10:09:39.107Z,64.07
2022-10-30T10:10:39.021Z,63.18
2022-10-30T10:11:39.014Z,64.17
2022-10-30T10:12:39.012Z,65.10
2022-10-30T10:13:39.001Z,66.99
2022-10-30T10:14:39.022Z,64.12
2022-10-30T10:15:38.985Z,63.60
2022-10-30T10:16:38.977Z,64.60
2022-10-30T10:17:38.973Z,65.57
2022-10-30T10:18:38.967Z,63.91
2022-10-30T10:19:38.981Z,59.45
2022-10-30T10:20:38.960Z,66.04
2022-10-30T10:21:38.938Z,64.41
2022-10-30T10:22:39.945Z,64.40
2022-10-30T10:23:38.931Z,64.01
2022-10-30T10:24:38.952Z,62.62
2022-10-30T10:25:38.914Z,64.97
2022-10-30T10:26:38.916Z,60.47
2022-10-30T10:27:39.907Z,59.77
2022-10-30T10:28:38.902Z,67.53
2022-10-30T10:29:38.923Z,63.96
2022-10-30T10:30:38.882Z,57.73
2022-10-30T10:31:38.876Z,54.61
2022-10-30T10:32:38.892Z,64.05
2022-10-30T10:33:38.869Z,65.08
2022-10-30T10:34:38.877Z,60.49
2022-10-30T10:35:38.852Z,61.87
2022-10-30T10:36:38.843Z,60.77
2022-10-30T10:37:38.834Z,65.57
2022-10-30T10:38:38.833Z,63.15
2022-10-30T10:39:38.854Z,58.37
2022-10-30T10:40:38.833Z,66.01
2022-10-30T10:41:38.806Z,61.55
2022-10-30T10:42:38.800Z,59.65
2022-10-30T10:43:38.797Z,57.86
2022-10-30T10:44:38.779Z,66.91
2022-10-30T10:45:38.801Z,55.65
2022-10-30T10:46:38.775Z,64.50
2022-10-30T10:47:38.760Z,65.23
2022-10-30T10:48:38.757Z,63.82
2022-10-30T10:49:40.157Z,62.20
2022-10-30T10:50:39.771Z,62.59
2022-10-30T10:51:38.739Z,63.91
2022-10-30T10:52:38.735Z,65.30
2022-10-30T10:53:38.741Z,60.98
2022-10-30T10:54:38.718Z,57.24
2022-10-30T10:55:38.738Z,62.39
2022-10-30T10:56:38.707Z,65.64
2022-10-30T10:57:38.695Z,56.69
2022-10-30T10:58:38.708Z,63.87
2022-10-30T10:59:38.684Z,63.71
2022-10-30T11:00:38.700Z,64.55
2022-10-30T11:01:38.809Z,63.34
2022-10-30T11:02:38.717Z,62.80
2022-10-30T11:03:38.649Z,61.95
2022-10-30T11:04:38.641Z,65.59
2022-10-30T11:05:38.665Z,60.26
2022-10-30T11:06:38.629Z,63.28
2022-10-30T11:07:38.633Z,68.32
2022-10-30T11:08:38.618Z,60.15
2022-10-30T11:09:38.609Z,64.03
2022-10-30T11:10:38.631Z,60.63
2022-10-30T11:11:38.595Z,65.27
2022-10-30T11:12:38.589Z,62.35
2022-10-30T11:13:38.585Z,64.63
2022-10-30T11:14:38.579Z,60.94
2022-10-30T11:15:38.598Z,62.85
2022-10-30T11:16:38.558Z,62.23
2022-10-30T11:17:38.555Z,59.87
2022-10-30T11:18:38.553Z,66.93
2022-10-30T11:19:38.539Z,63.26
2022-10-30T11:20:38.571Z,61.35
2022-10-30T11:21:38.529Z,64.85
2022-10-30T11:22:38.514Z,65.88
2022-10-30T11:23:38.505Z,66.27
2022-10-30T11:24:38.799Z,59.43
2022-10-30T11:25:38.556Z,54.65
2022-10-30T11:26:38.494Z,65.81
2022-10-30T11:27:38.479Z,64.81
2022-10-30T11:28:38.479Z,64.05
2022-10-30T11:29:38.471Z,64.90
2022-10-30T11:30:38.489Z,65.94
2022-10-30T11:31:38.450Z,65.20
2022-10-30T11:32:38.523Z,60.82
2022-10-30T11:33:38.436Z,62.83
2022-10-30T11:34:38.433Z,66.22
2022-10-30T11:35:38.463Z,62.68
2022-10-30T11:36:38.428Z,58.69
2022-10-30T11:37:38.408Z,61.80
2022-10-30T11:38:38.408Z,61.51
2022-10-30T11:39:38.399Z,65.90
2022-10-30T11:40:38.434Z,64.03
2022-10-30T11:41:38.386Z,62.88
2022-10-30T11:42:38.374Z,64.58
2022-10-30T11:43:38.378Z,66.66
2022-10-30T11:44:38.367Z,62.14
2022-10-30T11:45:38.391Z,63.35
2022-10-30T11:46:38.350Z,62.62
2022-10-30T11:47:38.351Z,67.31
2022-10-30T11:48:38.333Z,65.00
2022-10-30T11:49:38.335Z,59.27
2022-10-30T11:50:38.356Z,60.84
2022-10-30T11:51:38.450Z,66.01
2022-10-30T11:52:38.316Z,62.50
2022-10-30T11:53:38.305Z,63.85
2022-10-30T11:54:38.301Z,61.89
2022-10-30T11:55:38.335Z,66.85
2022-10-30T11:56:38.312Z,59.81
2022-10-30T11:57:38.274Z,58.87
2022-10-30T11:58:38.274Z,64.73
2022-10-30T11:59:38.257Z,66.64
2022-10-30T12:00:38.259Z,61.41
2022-10-30T12:01:38.316Z,64.38
2022-10-30T12:03:38.234Z,65.37
2022-10-30T12:04:38.227Z,62.57
2022-10-30T12:05:38.223Z,60.90
2022-10-30T12:06:38.244Z,63.97
2022-10-30T12:07:38.209Z,64.70
2022-10-30T12:08:38.203Z,65.21
2022-10-30T12:09:38.195Z,65.96
2022-10-30T12:10:38.190Z,63.78
2022-10-30T12:11:38.209Z,67.81
2022-10-30T12:12:38.172Z,64.20
2022-10-30T12:13:38.162Z,67.83
2022-10-30T12:14:38.155Z,63.13
2022-10-30T12:15:38.145Z,62.28
2022-10-30T12:16:38.168Z,65.43
2022-10-30T12:17:38.136Z,60.93
2022-10-30T12:18:38.136Z,62.31
2022-10-30T12:19:38.126Z,66.36
2022-10-30T12:20:38.117Z,59.97
2022-10-30T12:21:38.144Z,64.54
2022-10-30T12:22:38.109Z,63.81
2022-10-30T12:23:38.093Z,64.25
2022-10-30T12:24:38.088Z,65.01
2022-10-30T12:25:38.083Z,63.12
2022-10-30T12:26:38.105Z,65.95
2022-10-30T12:27:38.082Z,63.44
2022-10-30T12:28:38.072Z,62.37
2022-10-30T12:30:02.791Z,66.04
2022-10-30T12:30:40.048Z,64.74
2022-10-30T12:31:38.075Z,64.76
2022-10-30T12:32:39.752Z,61.67
2022-10-30T12:33:39.027Z,65.28
2022-10-30T12:34:38.024Z,64.85
2022-10-30T12:35:38.016Z,63.35
2022-10-30T12:36:38.037Z,62.20
2022-10-30T12:37:38.007Z,62.56
2022-10-30T12:38:38.001Z,67.02
2022-10-30T12:39:38.046Z,65.20
2022-10-30T12:40:37.976Z,62.88
2022-10-30T12:41:38.005Z,60.04
2022-10-30T12:42:37.976Z,63.34
2022-10-30T12:43:37.964Z,64.37
2022-10-30T12:44:37.953Z,61.75
2022-10-30T12:45:37.952Z,66.25
2022-10-30T12:46:37.971Z,66.59
2022-10-30T12:47:37.935Z,62.41
2022-10-30T12:48:37.936Z,58.32
2022-10-30T12:49:37.926Z,60.42
2022-10-30T12:50:37.913Z,65.65
2022-10-30T12:51:37.941Z,61.96
2022-10-30T12:52:37.904Z,63.78
2022-10-30T12:53:37.896Z,64.45
2022-10-30T12:54:37.895Z,60.16
2022-10-30T12:55:37.900Z,67.78
2022-10-30T12:56:37.913Z,64.03
2022-10-30T12:57:37.867Z,57.74